Airport View

Enter AWOS ICAO identifier for current METAR.

ex. KFNL

KARM 212315Z AUTO 13009KT 10SM CLR 30/21 A3000 RMK AO2 T02950208

21 Sep 2019 23:23

Frequency: 118.475

Phone: 979-532-2791

Other Area AWOS: KELA - KBYY - K66R - KPSX

TAF KSGR 211720Z 2118/2218 13009KT P6SM SCT035 BKN110 FM220900 13005KT P6SM SCT030 FM221500 14007KT P6SM SCT035